sensor_id;sensor_type;location;lat;lon;timestamp;temperature;humidity
12971;DHT22;6550;48.650;8.774;2023-04-24T00:00:35;13.60;99.90
12971;DHT22;6550;48.650;8.774;2023-04-24T00:03:02;13.60;99.90
12971;DHT22;6550;48.650;8.774;2023-04-24T00:05:29;14.30;99.90
12971;DHT22;6550;48.650;8.774;2023-04-24T00:07:58;13.70;99.90
12971;DHT22;6550;48.650;8.774;2023-04-24T00:10:25;14.10;99.90
12971;DHT22;6550;48.650;8.774;2023-04-24T00:12:54;14.30;99.90
12971;DHT22;6550;48.650;8.774;2023-04-24T00:15:20;13.90;99.90
12971;DHT22;6550;48.650;8.774;2023-04-24T00:17:50;13.80;99.90
12971;DHT22;6550;48.650;8.774;2023-04-24T00:20:17;13.90;99.90
12971;DHT22;6550;48.650;8.774;2023-04-24T00:22:45;13.80;99.90
12971;DHT22;6550;48.650;8.774;2023-04-24T00:25:14;13.80;99.90
12971;DHT22;6550;48.650;8.774;2023-04-24T00:27:43;14.00;99.90
12971;DHT22;6550;48.650;8.774;2023-04-24T00:30:10;13.80;99.90
12971;DHT22;6550;48.650;8.774;2023-04-24T00:32:40;13.80;99.90
12971;DHT22;6550;48.650;8.774;2023-04-24T00:35:07;13.70;99.90
12971;DHT22;6550;48.650;8.774;2023-04-24T00:37:36;13.70;99.90
12971;DHT22;6550;48.650;8.774;2023-04-24T00:40:07;13.70;99.90
12971;DHT22;6550;48.650;8.774;2023-04-24T00:45:04;13.70;99.90
12971;DHT22;6550;48.650;8.774;2023-04-24T00:47:33;13.80;99.90
12971;DHT22;6550;48.650;8.774;2023-04-24T00:50:05;13.90;99.90
12971;DHT22;6550;48.650;8.774;2023-04-24T00:52:33;13.90;99.90
12971;DHT22;6550;48.650;8.774;2023-04-24T00:54:59;14.00;99.90
12971;DHT22;6550;48.650;8.774;2023-04-24T00:57:26;14.10;99.90
12971;DHT22;6550;48.650;8.774;2023-04-24T00:59:53;13.70;99.90
12971;DHT22;6550;48.650;8.774;2023-04-24T01:02:22;13.80;99.90
12971;DHT22;6550;48.650;8.774;2023-04-24T01:04:52;13.70;99.90
12971;DHT22;6550;48.650;8.774;2023-04-24T01:07:20;13.70;99.90
12971;DHT22;6550;48.650;8.774;2023-04-24T01:09:52;13.70;99.90
12971;DHT22;6550;48.650;8.774;2023-04-24T01:12:19;13.80;99.90
12971;DHT22;6550;48.650;8.774;2023-04-24T01:14:46;13.70;99.90
12971;DHT22;6550;48.650;8.774;2023-04-24T01:17:15;13.60;99.90
12971;DHT22;6550;48.650;8.774;2023-04-24T01:19:42;13.60;99.90
12971;DHT22;6550;48.650;8.774;2023-04-24T01:22:14;13.60;99.90
12971;DHT22;6550;48.650;8.774;2023-04-24T01:24:43;13.60;99.90
12971;DHT22;6550;48.650;8.774;2023-04-24T01:27:11;13.50;99.90
12971;DHT22;6550;48.650;8.774;2023-04-24T01:29:38;13.60;99.90
12971;DHT22;6550;48.650;8.774;2023-04-24T01:32:06;13.70;99.90
12971;DHT22;6550;48.650;8.774;2023-04-24T01:34:33;13.50;99.90
12971;DHT22;6550;48.650;8.774;2023-04-24T01:37:03;13.60;99.90
12971;DHT22;6550;48.650;8.774;2023-04-24T01:39:32;13.60;99.90
12971;DHT22;6550;48.650;8.774;2023-04-24T01:42:00;13.70;99.90
12971;DHT22;6550;48.650;8.774;2023-04-24T01:44:32;13.60;99.90
12971;DHT22;6550;48.650;8.774;2023-04-24T01:47:00;13.50;99.90
12971;DHT22;6550;48.650;8.774;2023-04-24T01:49:27;13.60;99.90
12971;DHT22;6550;48.650;8.774;2023-04-24T01:51:54;13.40;99.90
12971;DHT22;6550;48.650;8.774;2023-04-24T01:54:21;13.40;99.90
12971;DHT22;6550;48.650;8.774;2023-04-24T01:56:50;13.40;99.90
12971;DHT22;6550;48.650;8.774;2023-04-24T01:59:17;13.20;99.90
12971;DHT22;6550;48.650;8.774;2023-04-24T02:04:13;13.30;99.90
12971;DHT22;6550;48.650;8.774;2023-04-24T02:06:42;13.30;99.90
12971;DHT22;6550;48.650;8.774;2023-04-24T02:09:11;13.40;99.90
12971;DHT22;6550;48.650;8.774;2023-04-24T02:11:40;13.30;99.90
12971;DHT22;6550;48.650;8.774;2023-04-24T02:14:07;13.30;99.90
12971;DHT22;6550;48.650;8.774;2023-04-24T02:16:36;13.30;99.90
12971;DHT22;6550;48.650;8.774;2023-04-24T02:19:03;13.30;99.90
12971;DHT22;6550;48.650;8.774;2023-04-24T02:21:30;13.30;99.90
12971;DHT22;6550;48.650;8.774;2023-04-24T02:24:02;13.30;99.90
12971;DHT22;6550;48.650;8.774;2023-04-24T02:26:31;13.30;99.90
12971;DHT22;6550;48.650;8.774;2023-04-24T02:28:58;13.20;99.90
12971;DHT22;6550;48.650;8.774;2023-04-24T02:31:25;13.20;99.90
12971;DHT22;6550;48.650;8.774;2023-04-24T02:33:54;13.00;99.90
12971;DHT22;6550;48.650;8.774;2023-04-24T02:36:21;13.50;99.90
12971;DHT22;6550;48.650;8.774;2023-04-24T02:38:54;13.20;99.90
12971;DHT22;6550;48.650;8.774;2023-04-24T02:41:21;13.20;99.90
12971;DHT22;6550;48.650;8.774;2023-04-24T02:43:48;13.20;99.90
12971;DHT22;6550;48.650;8.774;2023-04-24T02:46:17;13.20;99.90
12971;DHT22;6550;48.650;8.774;2023-04-24T02:48:44;13.20;99.90
12971;DHT22;6550;48.650;8.774;2023-04-24T02:51:13;13.20;99.90
12971;DHT22;6550;48.650;8.774;2023-04-24T02:53:39;13.30;99.90
12971;DHT22;6550;48.650;8.774;2023-04-24T02:56:09;13.30;99.90
12971;DHT22;6550;48.650;8.774;2023-04-24T02:58:38;13.20;99.90
12971;DHT22;6550;48.650;8.774;2023-04-24T03:01:08;13.10;99.90
12971;DHT22;6550;48.650;8.774;2023-04-24T03:03:37;13.10;99.90
12971;DHT22;6550;48.650;8.774;2023-04-24T03:06:07;13.00;99.90
12971;DHT22;6550;48.650;8.774;2023-04-24T03:08:34;12.70;99.90
12971;DHT22;6550;48.650;8.774;2023-04-24T03:11:03;13.00;99.90
12971;DHT22;6550;48.650;8.774;2023-04-24T03:13:32;12.90;99.90
12971;DHT22;6550;48.650;8.774;2023-04-24T03:15:59;12.90;99.90
12971;DHT22;6550;48.650;8.774;2023-04-24T03:20:53;13.00;99.90
12971;DHT22;6550;48.650;8.774;2023-04-24T03:23:19;12.90;99.90
12971;DHT22;6550;48.650;8.774;2023-04-24T03:28:14;12.90;99.90
12971;DHT22;6550;48.650;8.774;2023-04-24T03:30:44;12.90;99.90
12971;DHT22;6550;48.650;8.774;2023-04-24T03:33:10;12.80;99.90
12971;DHT22;6550;48.650;8.774;2023-04-24T03:35:37;12.80;99.90
12971;DHT22;6550;48.650;8.774;2023-04-24T03:38:04;12.70;99.90
12971;DHT22;6550;48.650;8.774;2023-04-24T03:40:33;12.70;99.90
12971;DHT22;6550;48.650;8.774;2023-04-24T03:43:01;12.60;99.90
12971;DHT22;6550;48.650;8.774;2023-04-24T03:45:32;12.60;99.90
12971;DHT22;6550;48.650;8.774;2023-04-24T03:48:01;12.60;99.90
12971;DHT22;6550;48.650;8.774;2023-04-24T03:50:28;12.70;99.90
12971;DHT22;6550;48.650;8.774;2023-04-24T03:52:55;12.70;99.90
12971;DHT22;6550;48.650;8.774;2023-04-24T03:55:24;12.70;99.90
12971;DHT22;6550;48.650;8.774;2023-04-24T03:57:51;12.70;99.90
12971;DHT22;6550;48.650;8.774;2023-04-24T04:00:18;12.70;99.90
12971;DHT22;6550;48.650;8.774;2023-04-24T04:02:47;12.60;99.90
12971;DHT22;6550;48.650;8.774;2023-04-24T04:05:17;12.80;99.90
12971;DHT22;6550;48.650;8.774;2023-04-24T04:07:48;12.70;99.90
12971;DHT22;6550;48.650;8.774;2023-04-24T04:10:15;12.70;99.90
12971;DHT22;6550;48.650;8.774;2023-04-24T04:12:43;12.70;99.90
12971;DHT22;6550;48.650;8.774;2023-04-24T04:15:10;12.60;99.90
12971;DHT22;6550;48.650;8.774;2023-04-24T04:17:37;12.50;99.90
12971;DHT22;6550;48.650;8.774;2023-04-24T04:20:05;12.20;99.90
12971;DHT22;6550;48.650;8.774;2023-04-24T04:22:40;12.00;99.90
12971;DHT22;6550;48.650;8.774;2023-04-24T04:25:10;12.10;99.90
12971;DHT22;6550;48.650;8.774;2023-04-24T04:30:08;11.90;99.90
12971;DHT22;6550;48.650;8.774;2023-04-24T04:32:38;11.60;99.90
12971;DHT22;6550;48.650;8.774;2023-04-24T04:35:05;11.60;99.90
12971;DHT22;6550;48.650;8.774;2023-04-24T04:37:33;11.60;99.90
12971;DHT22;6550;48.650;8.774;2023-04-24T04:40:03;11.50;99.90
12971;DHT22;6550;48.650;8.774;2023-04-24T04:42:40;11.70;99.90
12971;DHT22;6550;48.650;8.774;2023-04-24T04:45:12;11.70;99.90
12971;DHT22;6550;48.650;8.774;2023-04-24T04:47:39;11.70;99.90
12971;DHT22;6550;48.650;8.774;2023-04-24T04:50:11;11.70;99.90
12971;DHT22;6550;48.650;8.774;2023-04-24T04:52:37;11.70;99.90
12971;DHT22;6550;48.650;8.774;2023-04-24T04:55:05;11.80;99.90
12971;DHT22;6550;48.650;8.774;2023-04-24T04:57:32;11.90;99.90
12971;DHT22;6550;48.650;8.774;2023-04-24T04:59:58;11.90;99.90
12971;DHT22;6550;48.650;8.774;2023-04-24T05:02:28;12.00;99.90
12971;DHT22;6550;48.650;8.774;2023-04-24T05:07:27;11.90;99.90
12971;DHT22;6550;48.650;8.774;2023-04-24T05:09:53;11.90;99.90
12971;DHT22;6550;48.650;8.774;2023-04-24T05:12:22;11.90;99.90
12971;DHT22;6550;48.650;8.774;2023-04-24T05:19:44;11.60;99.90
12971;DHT22;6550;48.650;8.774;2023-04-24T05:22:11;11.80;99.90
12971;DHT22;6550;48.650;8.774;2023-04-24T05:24:38;11.80;99.90
12971;DHT22;6550;48.650;8.774;2023-04-24T05:27:05;11.70;99.90
12971;DHT22;6550;48.650;8.774;2023-04-24T05:32:02;11.60;99.90
12971;DHT22;6550;48.650;8.774;2023-04-24T05:34:28;11.70;99.90
12971;DHT22;6550;48.650;8.774;2023-04-24T05:36:59;11.70;99.90
12971;DHT22;6550;48.650;8.774;2023-04-24T05:39:28;11.70;99.90
12971;DHT22;6550;48.650;8.774;2023-04-24T05:41:55;11.70;99.90
12971;DHT22;6550;48.650;8.774;2023-04-24T05:44:24;11.70;99.90
12971;DHT22;6550;48.650;8.774;2023-04-24T05:46:56;11.70;99.90
12971;DHT22;6550;48.650;8.774;2023-04-24T05:49:25;11.80;99.90
12971;DHT22;6550;48.650;8.774;2023-04-24T05:51:54;11.80;99.90
12971;DHT22;6550;48.650;8.774;2023-04-24T05:54:21;12.00;99.90
12971;DHT22;6550;48.650;8.774;2023-04-24T05:56:50;12.10;99.90
12971;DHT22;6550;48.650;8.774;2023-04-24T05:59:17;12.20;99.90
12971;DHT22;6550;48.650;8.774;2023-04-24T06:04:14;12.60;99.90
12971;DHT22;6550;48.650;8.774;2023-04-24T06:06:41;12.80;99.90
12971;DHT22;6550;48.650;8.774;2023-04-24T06:09:10;12.90;99.90
12971;DHT22;6550;48.650;8.774;2023-04-24T06:14:04;13.20;99.90
12971;DHT22;6550;48.650;8.774;2023-04-24T06:16:31;13.40;99.90
12971;DHT22;6550;48.650;8.774;2023-04-24T06:19:00;13.60;99.90
12971;DHT22;6550;48.650;8.774;2023-04-24T06:21:29;13.80;99.90
12971;DHT22;6550;48.650;8.774;2023-04-24T06:24:01;14.00;99.90
12971;DHT22;6550;48.650;8.774;2023-04-24T06:26:28;14.10;99.90
12971;DHT22;6550;48.650;8.774;2023-04-24T06:28:58;14.20;99.90
12971;DHT22;6550;48.650;8.774;2023-04-24T06:31:26;14.40;99.90
12971;DHT22;6550;48.650;8.774;2023-04-24T06:33:57;15.20;99.90
12971;DHT22;6550;48.650;8.774;2023-04-24T06:36:24;15.20;99.90
12971;DHT22;6550;48.650;8.774;2023-04-24T06:38:50;15.10;99.90
12971;DHT22;6550;48.650;8.774;2023-04-24T06:41:17;15.20;99.90
12971;DHT22;6550;48.650;8.774;2023-04-24T06:43:47;15.40;99.90
12971;DHT22;6550;48.650;8.774;2023-04-24T06:46:13;15.30;99.90
12971;DHT22;6550;48.650;8.774;2023-04-24T06:48:40;15.40;99.90
12971;DHT22;6550;48.650;8.774;2023-04-24T06:51:07;15.00;99.90
12971;DHT22;6550;48.650;8.774;2023-04-24T06:53:36;14.70;99.90
12971;DHT22;6550;48.650;8.774;2023-04-24T06:56:06;14.50;99.90
12971;DHT22;6550;48.650;8.774;2023-04-24T06:58:32;14.30;99.90
12971;DHT22;6550;48.650;8.774;2023-04-24T07:01:01;14.20;99.90
12971;DHT22;6550;48.650;8.774;2023-04-24T07:03:28;14.20;99.90
12971;DHT22;6550;48.650;8.774;2023-04-24T07:05:55;14.60;99.90
12971;DHT22;6550;48.650;8.774;2023-04-24T07:08:24;14.40;99.90
12971;DHT22;6550;48.650;8.774;2023-04-24T07:10:51;14.40;99.90
12971;DHT22;6550;48.650;8.774;2023-04-24T07:13:18;14.40;99.90
12971;DHT22;6550;48.650;8.774;2023-04-24T07:15:48;14.50;99.90
12971;DHT22;6550;48.650;8.774;2023-04-24T07:18:17;14.50;99.90
12971;DHT22;6550;48.650;8.774;2023-04-24T07:20:44;14.60;99.90
12971;DHT22;6550;48.650;8.774;2023-04-24T07:25:42;14.90;99.90
12971;DHT22;6550;48.650;8.774;2023-04-24T07:28:11;15.10;99.90
12971;DHT22;6550;48.650;8.774;2023-04-24T07:30:39;15.10;99.90
12971;DHT22;6550;48.650;8.774;2023-04-24T07:33:08;15.00;99.90
12971;DHT22;6550;48.650;8.774;2023-04-24T07:35:39;15.00;99.90
12971;DHT22;6550;48.650;8.774;2023-04-24T07:38:06;14.90;99.90
12971;DHT22;6550;48.650;8.774;2023-04-24T07:40:33;14.90;99.90
12971;DHT22;6550;48.650;8.774;2023-04-24T07:43:05;14.90;99.90
12971;DHT22;6550;48.650;8.774;2023-04-24T07:45:34;14.90;99.90
12971;DHT22;6550;48.650;8.774;2023-04-24T07:48:03;15.10;99.90
12971;DHT22;6550;48.650;8.774;2023-04-24T07:50:30;15.40;99.90
12971;DHT22;6550;48.650;8.774;2023-04-24T07:52:57;15.10;99.90
12971;DHT22;6550;48.650;8.774;2023-04-24T07:55:29;15.20;99.90
12971;DHT22;6550;48.650;8.774;2023-04-24T07:57:56;15.50;99.90
12971;DHT22;6550;48.650;8.774;2023-04-24T08:00:23;15.70;99.10
12971;DHT22;6550;48.650;8.774;2023-04-24T08:02:49;15.80;98.50
12971;DHT22;6550;48.650;8.774;2023-04-24T08:05:16;15.90;97.80
12971;DHT22;6550;48.650;8.774;2023-04-24T08:07:44;16.10;97.80
12971;DHT22;6550;48.650;8.774;2023-04-24T08:15:09;16.50;94.80
12971;DHT22;6550;48.650;8.774;2023-04-24T08:17:36;16.20;94.40
12971;DHT22;6550;48.650;8.774;2023-04-24T08:20:04;16.10;94.40
12971;DHT22;6550;48.650;8.774;2023-04-24T08:25:01;15.90;94.30
12971;DHT22;6550;48.650;8.774;2023-04-24T08:27:30;15.80;94.90
12971;DHT22;6550;48.650;8.774;2023-04-24T08:29:57;15.50;94.90
12971;DHT22;6550;48.650;8.774;2023-04-24T08:32:25;15.60;94.30
12971;DHT22;6550;48.650;8.774;2023-04-24T08:34:59;15.40;93.50
12971;DHT22;6550;48.650;8.774;2023-04-24T08:37:28;15.30;93.90
12971;DHT22;6550;48.650;8.774;2023-04-24T08:39:55;15.10;93.90
12971;DHT22;6550;48.650;8.774;2023-04-24T08:42:22;15.30;94.30
12971;DHT22;6550;48.650;8.774;2023-04-24T08:44:51;15.20;94.30
12971;DHT22;6550;48.650;8.774;2023-04-24T08:47:18;16.00;93.80
12971;DHT22;6550;48.650;8.774;2023-04-24T08:49:48;16.00;94.00
12971;DHT22;6550;48.650;8.774;2023-04-24T08:52:23;16.60;92.50
12971;DHT22;6550;48.650;8.774;2023-04-24T08:54:49;16.90;91.10
12971;DHT22;6550;48.650;8.774;2023-04-24T08:57:19;17.00;90.50
12971;DHT22;6550;48.650;8.774;2023-04-24T08:59:46;17.20;89.10
12971;DHT22;6550;48.650;8.774;2023-04-24T09:02:14;17.10;89.70
12971;DHT22;6550;48.650;8.774;2023-04-24T09:04:43;17.10;86.90
12971;DHT22;6550;48.650;8.774;2023-04-24T09:07:12;17.00;85.90
12971;DHT22;6550;48.650;8.774;2023-04-24T09:09:40;17.00;86.30
12971;DHT22;6550;48.650;8.774;2023-04-24T09:14:37;17.60;82.30
12971;DHT22;6550;48.650;8.774;2023-04-24T09:17:11;17.40;80.20
12971;DHT22;6550;48.650;8.774;2023-04-24T09:19:38;17.70;78.10
12971;DHT22;6550;48.650;8.774;2023-04-24T09:22:09;18.00;79.10
12971;DHT22;6550;48.650;8.774;2023-04-24T09:24:36;18.30;76.60
12971;DHT22;6550;48.650;8.774;2023-04-24T09:27:03;18.10;76.50
12971;DHT22;6550;48.650;8.774;2023-04-24T09:29:30;18.30;74.10
12971;DHT22;6550;48.650;8.774;2023-04-24T09:31:59;18.40;73.10
12971;DHT22;6550;48.650;8.774;2023-04-24T09:34:47;18.60;72.10
12971;DHT22;6550;48.650;8.774;2023-04-24T09:37:30;18.70;71.00
12971;DHT22;6550;48.650;8.774;2023-04-24T09:40:15;18.70;72.20
12971;DHT22;6550;48.650;8.774;2023-04-24T09:42:56;18.90;72.40
12971;DHT22;6550;48.650;8.774;2023-04-24T09:45:35;18.90;72.20
12971;DHT22;6550;48.650;8.774;2023-04-24T09:48:02;18.80;73.20
12971;DHT22;6550;48.650;8.774;2023-04-24T09:50:30;18.60;71.90
12971;DHT22;6550;48.650;8.774;2023-04-24T09:53:05;18.30;70.20
12971;DHT22;6550;48.650;8.774;2023-04-24T09:55:42;18.20;71.10
12971;DHT22;6550;48.650;8.774;2023-04-24T09:58:14;18.50;71.30
12971;DHT22;6550;48.650;8.774;2023-04-24T10:00:41;18.70;72.90
12971;DHT22;6550;48.650;8.774;2023-04-24T10:03:10;19.10;72.50
12971;DHT22;6550;48.650;8.774;2023-04-24T10:05:38;19.50;71.10
12971;DHT22;6550;48.650;8.774;2023-04-24T10:08:11;20.00;70.10
12971;DHT22;6550;48.650;8.774;2023-04-24T10:10:43;19.90;70.60
12971;DHT22;6550;48.650;8.774;2023-04-24T10:13:14;19.90;70.50
12971;DHT22;6550;48.650;8.774;2023-04-24T10:15:44;19.80;69.90
12971;DHT22;6550;48.650;8.774;2023-04-24T10:18:11;19.50;70.30
12971;DHT22;6550;48.650;8.774;2023-04-24T10:20:39;20.00;70.00
12971;DHT22;6550;48.650;8.774;2023-04-24T10:23:12;20.10;71.00
12971;DHT22;6550;48.650;8.774;2023-04-24T10:25:39;20.20;69.70
12971;DHT22;6550;48.650;8.774;2023-04-24T10:28:08;19.90;70.20
12971;DHT22;6550;48.650;8.774;2023-04-24T10:30:39;19.80;69.90
12971;DHT22;6550;48.650;8.774;2023-04-24T10:33:11;19.50;70.70
12971;DHT22;6550;48.650;8.774;2023-04-24T10:35:45;19.40;70.60
12971;DHT22;6550;48.650;8.774;2023-04-24T10:38:22;19.50;69.90
12971;DHT22;6550;48.650;8.774;2023-04-24T10:40:51;19.80;69.10
12971;DHT22;6550;48.650;8.774;2023-04-24T10:43:21;19.90;68.90
12971;DHT22;6550;48.650;8.774;2023-04-24T10:46:04;19.80;68.60
12971;DHT22;6550;48.650;8.774;2023-04-24T10:48:33;19.80;69.70
12971;DHT22;6550;48.650;8.774;2023-04-24T10:51:02;19.80;68.50
12971;DHT22;6550;48.650;8.774;2023-04-24T10:53:30;19.80;68.90
12971;DHT22;6550;48.650;8.774;2023-04-24T10:56:08;20.00;70.10
12971;DHT22;6550;48.650;8.774;2023-04-24T10:58:45;20.00;69.20
12971;DHT22;6550;48.650;8.774;2023-04-24T11:01:29;20.20;69.10
12971;DHT22;6550;48.650;8.774;2023-04-24T11:04:03;20.10;69.00
12971;DHT22;6550;48.650;8.774;2023-04-24T11:06:35;19.90;67.90
12971;DHT22;6550;48.650;8.774;2023-04-24T11:09:09;19.60;68.20
12971;DHT22;6550;48.650;8.774;2023-04-24T11:11:44;19.60;69.30
12971;DHT22;6550;48.650;8.774;2023-04-24T11:14:14;20.00;69.30
12971;DHT22;6550;48.650;8.774;2023-04-24T11:21:43;20.10;68.40
12971;DHT22;6550;48.650;8.774;2023-04-24T11:37:40;20.70;67.00
12971;DHT22;6550;48.650;8.774;2023-04-24T11:40:11;20.90;67.30
12971;DHT22;6550;48.650;8.774;2023-04-24T11:42:45;20.70;66.90
12971;DHT22;6550;48.650;8.774;2023-04-24T11:45:17;20.60;68.20
12971;DHT22;6550;48.650;8.774;2023-04-24T11:47:45;20.20;66.70
12971;DHT22;6550;48.650;8.774;2023-04-24T11:50:16;20.10;67.60
12971;DHT22;6550;48.650;8.774;2023-04-24T11:52:45;19.80;66.10
12971;DHT22;6550;48.650;8.774;2023-04-24T11:57:54;19.50;66.10
12971;DHT22;6550;48.650;8.774;2023-04-24T12:00:28;19.40;66.30
12971;DHT22;6550;48.650;8.774;2023-04-24T12:03:13;19.70;66.80
12971;DHT22;6550;48.650;8.774;2023-04-24T12:08:10;19.70;68.10
12971;DHT22;6550;48.650;8.774;2023-04-24T12:10:37;19.70;68.10
12971;DHT22;6550;48.650;8.774;2023-04-24T12:13:04;19.70;69.10
12971;DHT22;6550;48.650;8.774;2023-04-24T12:15:34;19.40;69.50
12971;DHT22;6550;48.650;8.774;2023-04-24T12:18:03;19.40;69.10
12971;DHT22;6550;48.650;8.774;2023-04-24T12:20:32;19.70;69.40
12971;DHT22;6550;48.650;8.774;2023-04-24T12:23:00;20.30;68.70
12971;DHT22;6550;48.650;8.774;2023-04-24T12:25:31;21.70;66.50
12971;DHT22;6550;48.650;8.774;2023-04-24T12:30:39;21.80;66.40
12971;DHT22;6550;48.650;8.774;2023-04-24T12:33:11;21.50;66.40
12971;DHT22;6550;48.650;8.774;2023-04-24T12:35:42;21.20;66.60
12971;DHT22;6550;48.650;8.774;2023-04-24T12:38:12;21.10;67.50
12971;DHT22;6550;48.650;8.774;2023-04-24T12:40:42;20.90;67.50
12971;DHT22;6550;48.650;8.774;2023-04-24T12:43:18;20.60;67.90
12971;DHT22;6550;48.650;8.774;2023-04-24T12:45:48;20.20;68.20
12971;DHT22;6550;48.650;8.774;2023-04-24T12:48:17;20.10;67.90
12971;DHT22;6550;48.650;8.774;2023-04-24T12:50:44;20.10;68.20
12971;DHT22;6550;48.650;8.774;2023-04-24T12:55:39;20.20;67.20
12971;DHT22;6550;48.650;8.774;2023-04-24T12:58:07;20.40;67.00
12971;DHT22;6550;48.650;8.774;2023-04-24T13:00:33;20.60;67.10
12971;DHT22;6550;48.650;8.774;2023-04-24T13:03:03;20.70;67.60
12971;DHT22;6550;48.650;8.774;2023-04-24T13:05:32;20.80;67.20
12971;DHT22;6550;48.650;8.774;2023-04-24T13:08:02;20.80;67.00
12971;DHT22;6550;48.650;8.774;2023-04-24T13:10:29;20.70;67.00
12971;DHT22;6550;48.650;8.774;2023-04-24T13:20:20;19.70;68.00
12971;DHT22;6550;48.650;8.774;2023-04-24T13:22:46;20.00;68.80
12971;DHT22;6550;48.650;8.774;2023-04-24T13:25:16;20.10;68.00
12971;DHT22;6550;48.650;8.774;2023-04-24T13:27:43;20.10;67.80
12971;DHT22;6550;48.650;8.774;2023-04-24T13:30:11;19.90;67.80
12971;DHT22;6550;48.650;8.774;2023-04-24T13:32:42;19.90;68.60
12971;DHT22;6550;48.650;8.774;2023-04-24T13:35:09;19.70;68.40
12971;DHT22;6550;48.650;8.774;2023-04-24T13:40:05;19.30;68.00
12971;DHT22;6550;48.650;8.774;2023-04-24T13:42:35;19.10;67.90
12971;DHT22;6550;48.650;8.774;2023-04-24T13:45:02;19.00;69.70
12971;DHT22;6550;48.650;8.774;2023-04-24T13:47:50;18.70;68.30
12971;DHT22;6550;48.650;8.774;2023-04-24T13:50:18;18.90;70.60
12971;DHT22;6550;48.650;8.774;2023-04-24T13:52:44;18.30;70.60
12971;DHT22;6550;48.650;8.774;2023-04-24T13:55:14;18.00;70.30
12971;DHT22;6550;48.650;8.774;2023-04-24T13:57:43;17.90;70.70
12971;DHT22;6550;48.650;8.774;2023-04-24T14:00:10;17.80;71.50
12971;DHT22;6550;48.650;8.774;2023-04-24T14:02:39;18.00;70.80
12971;DHT22;6550;48.650;8.774;2023-04-24T14:05:09;18.20;70.30
12971;DHT22;6550;48.650;8.774;2023-04-24T14:10:05;18.50;69.60
12971;DHT22;6550;48.650;8.774;2023-04-24T14:12:34;18.70;69.70
12971;DHT22;6550;48.650;8.774;2023-04-24T14:15:01;19.20;70.20
12971;DHT22;6550;48.650;8.774;2023-04-24T14:17:28;20.00;69.90
12971;DHT22;6550;48.650;8.774;2023-04-24T14:19:55;20.40;67.80
12971;DHT22;6550;48.650;8.774;2023-04-24T14:22:23;20.50;66.80
12971;DHT22;6550;48.650;8.774;2023-04-24T14:24:49;20.50;66.20
12971;DHT22;6550;48.650;8.774;2023-04-24T14:27:18;20.70;66.10
12971;DHT22;6550;48.650;8.774;2023-04-24T14:29:47;20.90;65.80
12971;DHT22;6550;48.650;8.774;2023-04-24T14:32:16;21.00;65.00
12971;DHT22;6550;48.650;8.774;2023-04-24T14:37:10;21.10;64.60
12971;DHT22;6550;48.650;8.774;2023-04-24T14:39:37;21.00;65.10
12971;DHT22;6550;48.650;8.774;2023-04-24T14:42:06;21.00;65.30
12971;DHT22;6550;48.650;8.774;2023-04-24T14:44:35;21.00;64.70
12971;DHT22;6550;48.650;8.774;2023-04-24T14:47:02;20.90;65.30
12971;DHT22;6550;48.650;8.774;2023-04-24T14:49:29;20.70;65.40
12971;DHT22;6550;48.650;8.774;2023-04-24T14:51:56;20.80;65.80
12971;DHT22;6550;48.650;8.774;2023-04-24T14:54:23;20.90;65.20
12971;DHT22;6550;48.650;8.774;2023-04-24T14:56:52;20.80;65.60
12971;DHT22;6550;48.650;8.774;2023-04-24T14:59:20;20.70;65.90
12971;DHT22;6550;48.650;8.774;2023-04-24T15:01:49;20.60;66.10
12971;DHT22;6550;48.650;8.774;2023-04-24T15:04:36;20.80;65.50
12971;DHT22;6550;48.650;8.774;2023-04-24T15:07:06;20.60;66.20
12971;DHT22;6550;48.650;8.774;2023-04-24T15:09:33;20.70;65.90
12971;DHT22;6550;48.650;8.774;2023-04-24T15:11:59;20.80;65.40
12971;DHT22;6550;48.650;8.774;2023-04-24T15:14:28;21.00;65.30
12971;DHT22;6550;48.650;8.774;2023-04-24T15:16:56;21.20;65.40
12971;DHT22;6550;48.650;8.774;2023-04-24T15:19:25;21.20;64.50
12971;DHT22;6550;48.650;8.774;2023-04-24T15:21:51;21.30;64.00
12971;DHT22;6550;48.650;8.774;2023-04-24T15:24:20;21.30;64.70
12971;DHT22;6550;48.650;8.774;2023-04-24T15:26:47;21.10;64.50
12971;DHT22;6550;48.650;8.774;2023-04-24T15:29:18;20.90;64.80
12971;DHT22;6550;48.650;8.774;2023-04-24T15:31:45;20.70;65.10
12971;DHT22;6550;48.650;8.774;2023-04-24T15:34:14;21.10;64.90
12971;DHT22;6550;48.650;8.774;2023-04-24T15:36:45;21.50;65.00
12971;DHT22;6550;48.650;8.774;2023-04-24T15:39:12;21.10;63.20
12971;DHT22;6550;48.650;8.774;2023-04-24T15:41:39;20.60;65.10
12971;DHT22;6550;48.650;8.774;2023-04-24T15:44:11;20.50;64.60
12971;DHT22;6550;48.650;8.774;2023-04-24T15:46:37;20.10;63.90
12971;DHT22;6550;48.650;8.774;2023-04-24T15:49:07;19.80;64.10
12971;DHT22;6550;48.650;8.774;2023-04-24T15:51:36;19.60;65.20
12971;DHT22;6550;48.650;8.774;2023-04-24T15:54:03;19.40;65.50
12971;DHT22;6550;48.650;8.774;2023-04-24T15:56:30;19.30;66.30
12971;DHT22;6550;48.650;8.774;2023-04-24T16:01:26;18.80;64.60
12971;DHT22;6550;48.650;8.774;2023-04-24T16:03:55;18.60;66.60
12971;DHT22;6550;48.650;8.774;2023-04-24T16:06:22;18.50;67.80
12971;DHT22;6550;48.650;8.774;2023-04-24T16:08:49;18.50;68.40
12971;DHT22;6550;48.650;8.774;2023-04-24T16:11:19;18.30;67.10
12971;DHT22;6550;48.650;8.774;2023-04-24T16:13:48;18.00;67.30
12971;DHT22;6550;48.650;8.774;2023-04-24T16:16:15;17.80;67.90
12971;DHT22;6550;48.650;8.774;2023-04-24T16:18:41;17.60;67.30
12971;DHT22;6550;48.650;8.774;2023-04-24T16:21:13;17.50;68.20
12971;DHT22;6550;48.650;8.774;2023-04-24T16:23:44;17.60;68.60
12971;DHT22;6550;48.650;8.774;2023-04-24T16:26:11;17.60;68.90
12971;DHT22;6550;48.650;8.774;2023-04-24T16:28:38;18.00;69.10
12971;DHT22;6550;48.650;8.774;2023-04-24T16:31:05;18.60;68.50
12971;DHT22;6550;48.650;8.774;2023-04-24T16:33:36;19.10;67.90
12971;DHT22;6550;48.650;8.774;2023-04-24T16:36:05;19.50;67.30
12971;DHT22;6550;48.650;8.774;2023-04-24T16:38:34;19.70;65.00
12971;DHT22;6550;48.650;8.774;2023-04-24T16:41:01;19.80;64.80
12971;DHT22;6550;48.650;8.774;2023-04-24T16:43:28;19.90;66.00
12971;DHT22;6550;48.650;8.774;2023-04-24T16:45:58;20.00;65.90
12971;DHT22;6550;48.650;8.774;2023-04-24T16:48:31;20.20;65.70
12971;DHT22;6550;48.650;8.774;2023-04-24T16:51:00;20.30;66.30
12971;DHT22;6550;48.650;8.774;2023-04-24T16:53:27;20.40;66.30
12971;DHT22;6550;48.650;8.774;2023-04-24T16:55:54;20.40;66.10
12971;DHT22;6550;48.650;8.774;2023-04-24T16:58:21;20.70;66.20
12971;DHT22;6550;48.650;8.774;2023-04-24T17:00:52;20.90;66.40
12971;DHT22;6550;48.650;8.774;2023-04-24T17:03:18;20.90;66.00
12971;DHT22;6550;48.650;8.774;2023-04-24T17:05:46;20.80;67.20
12971;DHT22;6550;48.650;8.774;2023-04-24T17:08:13;20.50;66.00
12971;DHT22;6550;48.650;8.774;2023-04-24T17:10:39;20.00;65.60
12971;DHT22;6550;48.650;8.774;2023-04-24T17:13:07;19.60;66.30
12971;DHT22;6550;48.650;8.774;2023-04-24T17:15:34;19.30;66.50
12971;DHT22;6550;48.650;8.774;2023-04-24T17:18:01;19.00;67.30
12971;DHT22;6550;48.650;8.774;2023-04-24T17:20:28;18.60;67.30